Time;durP1;ratioP1;P1;durP2;ratioP2;P2;SDS_P1;SDS_P2;PMS_P1;PMS_P2;Temp;Humidity;BMP_temperature;BMP_pressure;BME280_temperature;BME280_humidity;BME280_pressure;Samples;Min_cycle;Max_cycle;Signal;HPM_P1;HPM_P2
2023/01/30 00:00:55;;;;;;;42.60;29.98;;;7.30;99.90;;;;;;5119411;27;20081;-75
2023/01/30 00:03:22;;;;;;;46.92;31.50;;;7.20;99.90;;;;;;5119300;28;20324;-75
2023/01/30 00:05:48;;;;;;;44.70;31.73;;;7.30;99.90;;;;;;5118842;28;20043;-75
2023/01/30 00:08:15;;;;;;;43.42;30.00;;;7.30;99.90;;;;;;5119216;28;20302;-75
2023/01/30 00:10:41;;;;;;;34.92;27.52;;;7.30;99.90;;;;;;5119111;28;20406;-74
2023/01/30 00:13:07;;;;;;;39.13;26.00;;;7.30;99.90;;;;;;5118661;27;20086;-74
2023/01/30 00:15:32;;;;;;;35.70;25.25;;;7.30;99.90;;;;;;5118735;28;20082;-74
2023/01/30 00:17:58;;;;;;;30.42;24.15;;;7.30;99.90;;;;;;5119039;28;20039;-75
2023/01/30 00:20:24;;;;;;;33.75;23.35;;;7.30;99.90;;;;;;5118771;28;20408;-75
2023/01/30 00:22:49;;;;;;;32.40;23.60;;;7.30;99.90;;;;;;5117690;28;20176;-75
2023/01/30 00:25:15;;;;;;;36.67;23.50;;;7.40;99.90;;;;;;5118843;28;20096;-75
2023/01/30 00:27:41;;;;;;;35.72;24.85;;;7.40;99.90;;;;;;5118774;28;20062;-74
2023/01/30 00:30:07;;;;;;;31.80;24.20;;;7.40;99.90;;;;;;5118713;28;20039;-75
2023/01/30 00:32:33;;;;;;;30.63;23.80;;;7.50;99.90;;;;;;5118414;28;20425;-75
2023/01/30 00:34:59;;;;;;;30.77;24.70;;;7.40;99.90;;;;;;5118180;28;20092;-75
2023/01/30 00:37:25;;;;;;;27.00;23.50;;;7.50;99.90;;;;;;5118590;28;20035;-75
2023/01/30 00:39:51;;;;;;;34.58;23.85;;;7.40;99.90;;;;;;5118515;28;20040;-75
2023/01/30 00:47:48;;;;;;;34.83;26.80;;;7.50;99.90;;;;;;5118408;28;20047;-75
2023/01/30 00:50:13;;;;;;;44.40;31.90;;;7.40;99.90;;;;;;5118267;28;20306;-75
2023/01/30 00:52:39;;;;;;;44.55;36.42;;;7.50;99.90;;;;;;5118312;28;20061;-75
2023/01/30 00:55:05;;;;;;;44.38;38.60;;;7.50;99.90;;;;;;5117888;27;20417;-74
2023/01/30 00:57:31;;;;;;;47.72;42.60;;;7.40;99.90;;;;;;5118202;28;20040;-74
2023/01/30 00:59:57;;;;;;;47.63;43.13;;;7.40;99.90;;;;;;5118184;28;20043;-74
2023/01/30 01:02:22;;;;;;;49.63;42.30;;;7.30;99.90;;;;;;5118050;28;20110;-74
2023/01/30 01:04:48;;;;;;;49.75;43.22;;;7.40;99.90;;;;;;5117814;28;20039;-74
2023/01/30 01:07:14;;;;;;;51.35;44.63;;;7.30;99.90;;;;;;5116724;28;20336;-74
2023/01/30 01:09:40;;;;;;;50.00;45.08;;;7.20;99.90;;;;;;5117955;28;20049;-75
2023/01/30 01:12:07;;;;;;;52.20;45.67;;;7.20;99.90;;;;;;5099612;28;20047;-75
2023/01/30 01:14:33;;;;;;;48.65;43.63;;;7.20;99.90;;;;;;5117807;28;20040;-75
2023/01/30 01:16:58;;;;;;;50.58;45.55;;;7.20;99.90;;;;;;5117802;28;20040;-75
2023/01/30 01:19:24;;;;;;;45.97;41.28;;;7.10;99.90;;;;;;5117820;28;20051;-75
2023/01/30 01:21:50;;;;;;;46.33;41.83;;;7.10;99.90;;;;;;5117489;28;20047;-75
2023/01/30 01:24:17;;;;;;;47.22;42.50;;;7.10;99.90;;;;;;5117640;28;20039;-75
2023/01/30 01:26:43;;;;;;;47.38;42.63;;;7.10;99.90;;;;;;5117710;28;20047;-75
2023/01/30 01:29:13;;;;;;;44.72;40.67;;;7.20;99.90;;;;;;5117345;28;20429;-74
2023/01/30 01:31:39;;;;;;;42.50;38.25;;;7.20;99.90;;;;;;5117316;28;20425;-75
2023/01/30 01:34:05;;;;;;;41.40;37.35;;;7.10;99.90;;;;;;5117211;28;20481;-75
2023/01/30 01:36:31;;;;;;;40.00;36.20;;;7.20;99.90;;;;;;5116876;28;20035;-75
2023/01/30 01:38:57;;;;;;;40.30;36.38;;;7.10;99.90;;;;;;5117259;28;20036;-75
2023/01/30 01:41:22;;;;;;;40.20;36.00;;;7.20;99.90;;;;;;5117461;28;20062;-75
2023/01/30 01:44:09;;;;;;;36.60;33.33;;;7.20;99.90;;;;;;5117078;28;20134;-75
2023/01/30 01:46:56;;;;;;;37.70;33.38;;;7.20;99.90;;;;;;5117489;28;20046;-75
2023/01/30 01:49:32;;;;;;;37.53;33.53;;;7.30;99.90;;;;;;5117394;28;20110;-75
2023/01/30 01:52:11;;;;;;;36.03;32.38;;;7.30;99.90;;;;;;5117784;28;20043;-75
2023/01/30 01:54:55;;;;;;;36.00;32.22;;;7.30;99.90;;;;;;5117289;28;20075;-75
2023/01/30 01:57:33;;;;;;;35.40;32.00;;;7.30;99.90;;;;;;5117311;28;20110;-75
2023/01/30 02:00:10;;;;;;;34.95;31.98;;;7.30;99.90;;;;;;5117000;28;20328;-75
2023/01/30 02:02:36;;;;;;;36.83;33.45;;;7.30;99.90;;;;;;5117284;28;20040;-75
2023/01/30 02:05:03;;;;;;;36.60;32.83;;;7.20;99.90;;;;;;5116820;28;20044;-75
2023/01/30 02:07:50;;;;;;;38.17;34.53;;;7.20;99.90;;;;;;5121108;28;20047;-75
2023/01/30 02:10:50;;;;;;;38.28;33.63;;;7.20;99.90;;;;;;5120238;28;20073;-75
2023/01/30 02:13:16;;;;;;;39.60;34.47;;;7.30;99.90;;;;;;5121342;28;20114;-75
2023/01/30 02:15:42;;;;;;;51.88;36.47;;;7.30;99.90;;;;;;5121061;28;20036;-75
2023/01/30 02:18:09;;;;;;;45.47;35.78;;;7.40;99.90;;;;;;5121533;27;20263;-75
2023/01/30 02:20:34;;;;;;;47.33;37.47;;;7.40;99.90;;;;;;5121217;28;20031;-75
2023/01/30 02:23:22;;;;;;;40.40;35.85;;;7.40;99.90;;;;;;5121128;28;20500;-75
2023/01/30 02:26:09;;;;;;;50.35;36.78;;;7.50;99.90;;;;;;5121174;28;20039;-74
2023/01/30 02:29:13;;;;;;;49.65;37.20;;;7.40;99.90;;;;;;5121086;28;20043;-75
2023/01/30 02:31:49;;;;;;;49.08;37.35;;;7.50;99.90;;;;;;5120782;28;20046;-75
2023/01/30 02:34:34;;;;;;;42.13;36.95;;;7.50;99.90;;;;;;5120981;28;20039;-75
2023/01/30 02:37:00;;;;;;;45.47;36.72;;;7.40;99.90;;;;;;5120678;28;20039;-75
2023/01/30 02:39:33;;;;;;;44.42;36.47;;;7.50;99.90;;;;;;5120638;27;20043;-74
2023/01/30 02:42:02;;;;;;;55.63;36.08;;;7.40;99.90;;;;;;5120836;28;20043;-74
2023/01/30 02:44:58;;;;;;;58.92;34.63;;;7.50;99.90;;;;;;5120386;28;20087;-75
2023/01/30 02:47:32;;;;;;;42.83;35.05;;;7.50;99.90;;;;;;5120746;28;20047;-75
2023/01/30 02:50:21;;;;;;;55.15;34.63;;;7.50;99.90;;;;;;5120740;28;20043;-75
2023/01/30 02:52:47;;;;;;;51.97;35.47;;;7.50;99.90;;;;;;5120645;28;20040;-75
2023/01/30 02:55:22;;;;;;;51.35;34.90;;;7.50;99.90;;;;;;5120524;27;20047;-75
2023/01/30 02:57:48;;;;;;;49.95;33.65;;;7.60;99.90;;;;;;5120539;28;20039;-75
2023/01/30 03:00:18;;;;;;;52.88;35.53;;;7.60;99.90;;;;;;5120483;28;20325;-75
2023/01/30 03:03:09;;;;;;;45.67;33.05;;;7.60;99.90;;;;;;5120447;28;20077;-75
2023/01/30 03:05:50;;;;;;;44.17;32.25;;;7.70;99.90;;;;;;5119735;28;20103;-75
2023/01/30 03:08:27;;;;;;;53.42;31.00;;;7.70;99.90;;;;;;5120353;28;20036;-75
2023/01/30 03:11:06;;;;;;;39.38;28.63;;;7.60;99.90;;;;;;5119966;28;20499;-74
2023/01/30 03:13:57;;;;;;;49.72;29.70;;;7.60;99.90;;;;;;5120163;28;20047;-75
2023/01/30 03:16:35;;;;;;;37.92;28.40;;;7.60;99.90;;;;;;5120089;27;20035;-75
2023/01/30 03:19:03;;;;;;;38.03;24.08;;;7.70;99.90;;;;;;5119867;28;20031;-75
2023/01/30 03:21:29;;;;;;;40.97;23.48;;;7.70;99.90;;;;;;5119126;28;20040;-75
2023/01/30 03:23:54;;;;;;;44.28;20.88;;;7.70;99.90;;;;;;5120042;28;20324;-75
2023/01/30 03:26:25;;;;;;;34.20;18.42;;;7.70;99.90;;;;;;5119955;28;20035;-76
2023/01/30 03:28:52;;;;;;;33.13;18.92;;;7.60;99.90;;;;;;5119982;28;20042;-74
2023/01/30 03:31:18;;;;;;;38.53;18.88;;;7.60;99.90;;;;;;5119622;28;20047;-75
2023/01/30 03:33:43;;;;;;;35.20;18.52;;;7.60;99.90;;;;;;5119706;28;20039;-75
2023/01/30 03:36:09;;;;;;;36.75;17.85;;;7.60;99.90;;;;;;5119204;28;20058;-75
2023/01/30 03:38:36;;;;;;;36.78;15.65;;;7.60;99.90;;;;;;5119568;28;20049;-74
2023/01/30 03:41:03;;;;;;;39.45;16.48;;;7.50;99.90;;;;;;5119552;28;20027;-74
2023/01/30 03:43:30;;;;;;;38.72;15.10;;;7.40;99.90;;;;;;5119073;28;20083;-74
2023/01/30 03:45:55;;;;;;;34.47;13.32;;;7.30;99.90;;;;;;5118104;28;20043;-75
2023/01/30 03:48:21;;;;;;;34.40;12.00;;;7.30;99.90;;;;;;5119420;28;20047;-74
2023/01/30 03:50:47;;;;;;;28.98;11.95;;;7.20;99.90;;;;;;5119202;28;20082;-74
2023/01/30 03:53:12;;;;;;;31.08;10.38;;;7.20;99.90;;;;;;5119461;27;20039;-74
2023/01/30 03:55:39;;;;;;;37.53;10.02;;;7.20;99.90;;;;;;5119462;27;20044;-74
2023/01/30 03:58:05;;;;;;;40.30;10.68;;;7.10;99.90;;;;;;5119027;28;20408;-75
2023/01/30 04:00:31;;;;;;;27.80;9.38;;;7.10;99.90;;;;;;5119029;28;20421;-74
2023/01/30 04:02:57;;;;;;;30.27;11.60;;;7.10;99.90;;;;;;5119262;28;20043;-74
2023/01/30 04:05:24;;;;;;;35.28;12.60;;;7.20;99.90;;;;;;5118739;28;20051;-75
2023/01/30 04:07:50;;;;;;;33.20;12.70;;;7.20;99.90;;;;;;5119178;28;20039;-74
2023/01/30 04:10:18;;;;;;;35.17;12.73;;;7.20;99.90;;;;;;5118785;28;20043;-74
2023/01/30 04:12:45;;;;;;;31.25;11.63;;;7.10;99.90;;;;;;5118860;28;20043;-74
2023/01/30 04:15:10;;;;;;;32.67;10.82;;;7.20;99.90;;;;;;5119064;28;20052;-74
2023/01/30 04:17:36;;;;;;;33.90;11.10;;;7.20;99.90;;;;;;5117652;28;20070;-74
2023/01/30 04:20:02;;;;;;;31.80;10.75;;;7.20;99.90;;;;;;5118914;28;20085;-75
2023/01/30 04:22:28;;;;;;;36.45;9.45;;;7.10;99.90;;;;;;5118895;28;20035;-74
2023/01/30 04:24:54;;;;;;;36.55;11.35;;;7.20;99.90;;;;;;5118598;28;20047;-74
2023/01/30 04:27:19;;;;;;;30.95;11.00;;;7.20;99.90;;;;;;5118576;28;20042;-74
2023/01/30 04:29:45;;;;;;;33.95;11.48;;;7.20;99.90;;;;;;5118215;28;20031;-74
2023/01/30 04:32:11;;;;;;;36.40;10.63;;;7.10;99.90;;;;;;5118666;28;20042;-74
2023/01/30 04:34:36;;;;;;;41.53;10.20;;;7.10;99.90;;;;;;5118147;28;20321;-78
2023/01/30 04:37:02;;;;;;;38.78;10.13;;;7.10;99.90;;;;;;5117641;28;20043;-74
2023/01/30 04:39:28;;;;;;;47.25;9.02;;;7.10;99.90;;;;;;5118263;28;20031;-74
2023/01/30 04:41:53;;;;;;;36.72;10.05;;;7.00;99.90;;;;;;5118557;28;20032;-74
2023/01/30 04:44:19;;;;;;;32.63;10.82;;;7.00;99.90;;;;;;5118031;28;20348;-74
2023/01/30 04:46:45;;;;;;;39.00;12.68;;;7.00;99.90;;;;;;5118417;28;20036;-74
2023/01/30 04:49:11;;;;;;;44.65;12.00;;;7.00;99.90;;;;;;5118427;28;20336;-74
2023/01/30 04:51:37;;;;;;;42.13;10.73;;;7.00;99.90;;;;;;5118332;28;20044;-74
2023/01/30 04:54:03;;;;;;;47.55;11.63;;;7.00;99.90;;;;;;5102843;28;20413;-75
2023/01/30 04:56:29;;;;;;;39.45;8.32;;;7.00;99.90;;;;;;5096559;28;20039;-74
2023/01/30 04:58:55;;;;;;;29.65;7.97;;;7.00;99.90;;;;;;5097778;28;20032;-74
2023/01/30 05:01:28;;;;;;;36.67;5.93;;;7.00;99.90;;;;;;5097525;28;20062;-73
2023/01/30 05:03:54;;;;;;;32.20;6.32;;;7.00;99.90;;;;;;5097808;28;20040;-74
2023/01/30 05:06:21;;;;;;;30.70;5.70;;;6.90;99.90;;;;;;5097288;28;20119;-74
2023/01/30 05:08:48;;;;;;;26.55;5.50;;;6.90;99.90;;;;;;5097439;28;20044;-74
2023/01/30 05:11:14;;;;;;;35.60;5.75;;;6.90;99.90;;;;;;5097641;28;20334;-74
2023/01/30 05:13:39;;;;;;;26.55;6.18;;;6.90;99.90;;;;;;5097486;28;20039;-74
2023/01/30 05:16:05;;;;;;;26.23;5.88;;;6.90;99.90;;;;;;5097569;28;20040;-74
2023/01/30 05:18:32;;;;;;;33.95;5.72;;;6.90;99.90;;;;;;5096486;28;20093;-74
2023/01/30 05:21:28;;;;;;;30.23;5.22;;;6.90;99.90;;;;;;5097447;28;20084;-74
2023/01/30 05:23:54;;;;;;;31.27;5.53;;;6.70;99.90;;;;;;5092335;28;20059;-74
2023/01/30 05:26:21;;;;;;;33.50;5.00;;;6.70;99.90;;;;;;5097044;28;20096;-74
2023/01/30 05:28:54;;;;;;;35.20;5.63;;;6.80;99.90;;;;;;5097357;28;20036;-74
2023/01/30 05:31:20;;;;;;;27.10;5.90;;;6.80;99.90;;;;;;5097345;28;20040;-74
2023/01/30 05:33:47;;;;;;;34.50;5.13;;;6.80;99.90;;;;;;5096885;28;20062;-74
2023/01/30 05:36:16;;;;;;;29.63;5.43;;;6.70;99.90;;;;;;5096811;28;20092;-74
2023/01/30 05:38:42;;;;;;;31.02;4.82;;;6.80;99.90;;;;;;5097194;28;20044;-74
2023/01/30 05:41:09;;;;;;;26.25;5.35;;;6.80;99.90;;;;;;5095998;28;20043;-74
2023/01/30 05:43:35;;;;;;;30.63;5.32;;;6.70;99.90;;;;;;5096598;28;20134;-74
2023/01/30 05:46:04;;;;;;;29.85;5.10;;;6.70;99.90;;;;;;5097137;28;20181;-74
2023/01/30 05:48:31;;;;;;;24.20;5.15;;;6.70;99.90;;;;;;5096821;28;20114;-74
2023/01/30 05:50:58;;;;;;;42.08;4.55;;;6.70;99.90;;;;;;5097040;28;20047;-74
2023/01/30 05:53:27;;;;;;;32.47;5.50;;;6.70;99.90;;;;;;5096962;28;20055;-74
2023/01/30 05:56:01;;;;;;;33.63;4.78;;;6.80;99.90;;;;;;5096961;28;20115;-74
2023/01/30 05:58:28;;;;;;;29.15;5.47;;;6.70;99.90;;;;;;5097018;28;20040;-74
2023/01/30 06:00:53;;;;;;;28.50;5.00;;;6.70;99.90;;;;;;5095622;28;20068;-74
2023/01/30 06:03:19;;;;;;;30.05;5.00;;;6.70;99.90;;;;;;5096573;28;20453;-74
2023/01/30 06:05:45;;;;;;;34.17;5.43;;;6.70;99.90;;;;;;5096497;28;20032;-74
2023/01/30 06:08:11;;;;;;;31.90;5.05;;;6.70;99.90;;;;;;5096664;28;20119;-74
2023/01/30 06:10:36;;;;;;;27.23;4.85;;;6.70;99.90;;;;;;5096868;28;20349;-74
2023/01/30 06:13:03;;;;;;;33.90;5.85;;;6.60;99.90;;;;;;5096654;28;20038;-74
2023/01/30 06:15:29;;;;;;;28.13;5.03;;;6.60;99.90;;;;;;5096434;28;20433;-74
2023/01/30 06:17:54;;;;;;;34.03;5.10;;;6.60;99.90;;;;;;5096792;28;20040;-74
2023/01/30 06:20:20;;;;;;;26.98;4.50;;;6.80;99.90;;;;;;5096773;28;20039;-74
2023/01/30 06:22:47;;;;;;;34.22;5.32;;;6.80;99.90;;;;;;5096716;28;20107;-74
2023/01/30 06:25:13;;;;;;;34.50;6.25;;;6.80;99.90;;;;;;5096694;28;20303;-74
2023/01/30 06:27:39;;;;;;;29.05;5.20;;;6.90;99.90;;;;;;5096740;28;20096;-74
2023/01/30 06:30:05;;;;;;;31.08;4.93;;;6.90;99.90;;;;;;5096694;28;20434;-74
2023/01/30 06:32:31;;;;;;;22.52;4.75;;;6.90;99.90;;;;;;5096656;28;20345;-74
2023/01/30 06:34:56;;;;;;;34.90;5.32;;;6.90;99.90;;;;;;5096178;28;20040;-75
2023/01/30 06:37:22;;;;;;;29.98;4.60;;;6.90;99.90;;;;;;5096626;28;20113;-74
2023/01/30 06:39:47;;;;;;;30.95;5.72;;;6.90;99.90;;;;;;5096596;28;20043;-74
2023/01/30 06:42:13;;;;;;;41.50;5.95;;;6.90;99.90;;;;;;5095517;28;20118;-74
2023/01/30 06:44:39;;;;;;;36.95;5.05;;;7.00;99.90;;;;;;5096369;28;20357;-74
2023/01/30 06:47:05;;;;;;;28.17;4.63;;;7.00;99.90;;;;;;5096164;28;20048;-74
2023/01/30 06:49:30;;;;;;;29.92;4.80;;;6.90;99.90;;;;;;5096489;28;20076;-74
2023/01/30 06:51:56;;;;;;;33.00;5.38;;;7.00;99.90;;;;;;5097434;28;20421;-74
2023/01/30 06:54:21;;;;;;;27.25;5.30;;;7.00;99.90;;;;;;5100098;28;20328;-75
2023/01/30 06:56:48;;;;;;;34.45;5.32;;;7.00;99.90;;;;;;5099951;28;20036;-73
2023/01/30 06:59:13;;;;;;;29.95;5.38;;;7.00;99.90;;;;;;5100098;28;20043;-74
2023/01/30 07:01:39;;;;;;;21.90;4.75;;;7.00;99.90;;;;;;5099850;28;20337;-74
2023/01/30 07:04:05;;;;;;;32.53;5.05;;;7.00;99.90;;;;;;5100041;28;20051;-73
2023/01/30 07:06:30;;;;;;;34.70;5.00;;;7.00;99.90;;;;;;5099564;28;20076;-74
2023/01/30 07:08:57;;;;;;;28.95;4.70;;;7.00;99.90;;;;;;5098955;28;20115;-74
2023/01/30 07:11:24;;;;;;;34.17;5.28;;;7.00;99.90;;;;;;5099581;28;20048;-74
2023/01/30 07:13:50;;;;;;;34.58;5.22;;;7.00;99.90;;;;;;5099750;28;20036;-73
2023/01/30 07:16:15;;;;;;;33.72;5.85;;;7.00;99.90;;;;;;5099743;28;20055;-74
2023/01/30 07:18:41;;;;;;;31.42;4.90;;;7.00;99.90;;;;;;5099813;28;20119;-74
2023/01/30 07:21:07;;;;;;;35.45;5.43;;;7.00;99.90;;;;;;5099444;28;20028;-74
2023/01/30 07:23:32;;;;;;;30.30;5.13;;;7.00;99.90;;;;;;5099706;28;20036;-74
2023/01/30 07:25:58;;;;;;;32.15;5.05;;;7.00;99.90;;;;;;5098338;28;20050;-74
2023/01/30 07:28:24;;;;;;;29.13;4.80;;;7.00;99.90;;;;;;5099541;28;20036;-74
2023/01/30 07:30:52;;;;;;;38.67;5.10;;;7.00;99.90;;;;;;5099509;28;20119;-74
2023/01/30 07:33:19;;;;;;;31.95;5.13;;;7.00;99.90;;;;;;5099408;28;20040;-75
2023/01/30 07:35:45;;;;;;;38.60;4.90;;;7.10;99.90;;;;;;5099031;28;20068;-74
2023/01/30 07:38:11;;;;;;;30.13;5.35;;;7.10;99.90;;;;;;5099388;28;20375;-75
2023/01/30 07:40:36;;;;;;;33.88;6.43;;;7.10;99.90;;;;;;5099379;28;20060;-75
2023/01/30 07:43:09;;;;;;;35.13;5.65;;;7.10;99.90;;;;;;5098817;28;20111;-74
2023/01/30 07:45:40;;;;;;;31.02;5.38;;;7.00;99.90;;;;;;5099283;28;20058;-74
2023/01/30 07:48:07;;;;;;;34.92;4.70;;;7.10;99.90;;;;;;5098936;28;20040;-75
2023/01/30 07:50:33;;;;;;;38.70;5.78;;;7.10;99.90;;;;;;5114834;28;20457;-75
2023/01/30 07:53:01;;;;;;;37.63;5.63;;;7.00;99.90;;;;;;5099117;28;20091;-74
2023/01/30 07:55:26;;;;;;;31.95;4.75;;;7.10;99.90;;;;;;5098733;28;20426;-74
2023/01/30 07:57:53;;;;;;;39.78;4.80;;;7.10;99.90;;;;;;5098120;28;20116;-74
2023/01/30 08:00:19;;;;;;;36.03;5.70;;;7.00;99.90;;;;;;5099043;28;20194;-75
2023/01/30 08:02:44;;;;;;;32.50;4.88;;;7.10;99.90;;;;;;5098388;28;20058;-74
2023/01/30 08:05:10;;;;;;;25.98;4.85;;;7.10;99.90;;;;;;5097876;28;20333;-75
2023/01/30 08:07:36;;;;;;;27.98;4.85;;;7.10;99.90;;;;;;5098907;28;20321;-74
2023/01/30 08:10:01;;;;;;;37.45;6.18;;;7.20;99.90;;;;;;5097435;28;20123;-74
2023/01/30 08:12:28;;;;;;;24.70;3.97;;;7.20;99.90;;;;;;5098715;28;20066;-75
2023/01/30 08:14:53;;;;;;;37.20;5.03;;;7.20;99.90;;;;;;5097317;28;20137;-74
2023/01/30 08:17:19;;;;;;;36.15;5.18;;;7.20;99.90;;;;;;5098634;28;20088;-74
2023/01/30 08:19:44;;;;;;;42.20;5.07;;;7.20;99.90;;;;;;5098530;28;20330;-74
2023/01/30 08:22:10;;;;;;;29.90;4.00;;;7.20;99.90;;;;;;5098201;28;20169;-74
2023/01/30 08:24:36;;;;;;;31.73;4.53;;;7.20;99.90;;;;;;5098489;28;20050;-74
2023/01/30 08:27:02;;;;;;;32.85;5.10;;;7.20;99.90;;;;;;5098421;28;20040;-74
2023/01/30 08:29:27;;;;;;;29.80;5.53;;;7.20;99.90;;;;;;5098100;28;20121;-74
2023/01/30 08:31:57;;;;;;;33.17;5.70;;;7.20;99.90;;;;;;5097036;28;20071;-74
2023/01/30 08:34:23;;;;;;;34.15;5.00;;;7.30;99.90;;;;;;5097166;28;20047;-74
2023/01/30 08:36:49;;;;;;;27.98;4.57;;;7.20;99.90;;;;;;5097810;28;20040;-73
2023/01/30 08:39:15;;;;;;;29.02;4.63;;;7.20;99.90;;;;;;5098210;28;20032;-74
2023/01/30 08:41:43;;;;;;;34.20;4.93;;;7.30;99.90;;;;;;5098161;28;20040;-74
2023/01/30 08:44:10;;;;;;;32.47;5.78;;;7.30;99.90;;;;;;5097535;28;20055;-75
2023/01/30 08:46:36;;;;;;;30.60;4.80;;;7.30;99.90;;;;;;5098024;28;20400;-75
2023/01/30 08:49:02;;;;;;;37.65;6.38;;;7.40;99.90;;;;;;5097999;28;20089;-75
2023/01/30 08:51:28;;;;;;;34.05;5.28;;;7.40;99.90;;;;;;5098100;28;20369;-75
2023/01/30 08:53:54;;;;;;;27.42;5.05;;;7.40;99.90;;;;;;5097840;28;20047;-70
2023/01/30 08:56:19;;;;;;;32.90;5.28;;;7.40;99.90;;;;;;5097837;28;20035;-69
2023/01/30 08:58:45;;;;;;;36.42;4.90;;;7.40;99.90;;;;;;5096590;28;20131;-72
2023/01/30 09:01:11;;;;;;;36.25;5.85;;;7.40;99.90;;;;;;5097762;28;20040;-71
2023/01/30 09:03:37;;;;;;;34.40;5.85;;;7.40;99.90;;;;;;5097691;28;20051;-70
2023/01/30 09:06:04;;;;;;;25.23;4.78;;;7.50;99.90;;;;;;5097001;28;20307;-70
2023/01/30 09:08:29;;;;;;;28.55;4.90;;;7.40;99.90;;;;;;5097626;28;20032;-70
2023/01/30 09:10:59;;;;;;;39.03;5.32;;;7.40;99.90;;;;;;5096645;28;20043;-70
2023/01/30 09:13:26;;;;;;;37.28;5.55;;;7.40;99.90;;;;;;5097482;28;20032;-69
2023/01/30 09:15:52;;;;;;;38.10;6.32;;;7.40;99.90;;;;;;5097396;28;20062;-70
2023/01/30 09:18:19;;;;;;;50.88;8.90;;;7.20;99.90;;;;;;5097476;28;20043;-70
2023/01/30 09:20:44;;;;;;;39.58;6.97;;;7.30;99.90;;;;;;5097103;28;20070;-70
2023/01/30 09:23:10;;;;;;;38.15;7.72;;;7.30;99.90;;;;;;5097080;28;20036;-70
2023/01/30 09:25:36;;;;;;;41.75;6.05;;;7.20;99.90;;;;;;5096325;28;20052;-70
2023/01/30 09:28:02;;;;;;;35.13;5.45;;;7.30;99.90;;;;;;5096322;28;20328;-70
2023/01/30 09:30:28;;;;;;;37.80;6.05;;;7.40;99.90;;;;;;5097267;28;20036;-70
2023/01/30 09:32:53;;;;;;;33.25;5.75;;;7.40;99.90;;;;;;5096321;28;20115;-71
2023/01/30 09:35:19;;;;;;;35.35;5.30;;;7.40;99.90;;;;;;5096482;28;20082;-69
2023/01/30 09:37:50;;;;;;;36.83;7.30;;;7.40;99.90;;;;;;5097206;28;20093;-69
2023/01/30 09:40:26;;;;;;;42.35;8.43;;;7.40;99.90;;;;;;5097101;28;20077;-70
2023/01/30 09:43:03;;;;;;;34.78;7.20;;;7.30;99.90;;;;;;5097539;28;20032;-70
2023/01/30 09:45:32;;;;;;;47.60;9.10;;;7.20;99.90;;;;;;5097110;28;20101;-70
2023/01/30 09:48:19;;;;;;;40.92;7.85;;;7.10;99.90;;;;;;5096722;28;20426;-70
2023/01/30 09:51:03;;;;;;;47.45;7.95;;;7.10;99.90;;;;;;5097070;28;20120;-70
2023/01/30 09:53:37;;;;;;;37.10;5.97;;;7.20;99.90;;;;;;5096951;28;20357;-70
2023/01/30 09:56:03;;;;;;;32.45;5.88;;;7.20;99.90;;;;;;5096937;28;20040;-70
2023/01/30 09:58:55;;;;;;;33.85;6.60;;;7.20;99.90;;;;;;5096548;28;20332;-71
2023/01/30 10:01:47;;;;;;;37.83;5.97;;;7.30;99.90;;;;;;5096569;28;20466;-71
2023/01/30 10:04:24;;;;;;;45.50;5.93;;;7.40;99.90;;;;;;5096923;28;20075;-70
2023/01/30 10:07:16;;;;;;;32.25;5.45;;;7.50;99.90;;;;;;5096211;28;20451;-70
2023/01/30 10:10:00;;;;;;;35.35;5.88;;;7.50;99.90;;;;;;5085332;28;20055;-70
2023/01/30 10:12:44;;;;;;;36.50;6.13;;;7.50;99.90;;;;;;5096724;28;20048;-70
2023/01/30 10:15:39;;;;;;;32.97;5.32;;;7.60;99.90;;;;;;5096690;28;20048;-70
2023/01/30 10:18:24;;;;;;;36.45;5.57;;;7.60;99.90;;;;;;5096799;28;20063;-70
2023/01/30 10:21:23;;;;;;;36.38;5.32;;;7.70;99.90;;;;;;5096729;28;20089;-70
2023/01/30 10:24:19;;;;;;;33.95;5.38;;;7.70;99.90;;;;;;5096412;28;20044;-70
2023/01/30 10:26:45;;;;;;;35.05;5.40;;;7.80;99.90;;;;;;5097488;28;20101;-71
2023/01/30 10:29:14;;;;;;;32.80;6.22;;;7.90;99.90;;;;;;5100710;28;20040;-71
2023/01/30 10:31:45;;;;;;;38.25;7.05;;;7.80;99.90;;;;;;5100643;28;20087;-70
2023/01/30 10:34:21;;;;;;;28.42;5.32;;;7.60;99.90;;;;;;5100207;28;20418;-71
2023/01/30 10:36:55;;;;;;;19.85;2.92;;;7.40;99.90;;;;;;5115926;28;20356;-70
2023/01/30 10:39:27;;;;;;;11.27;1.80;;;7.20;99.90;;;;;;5099337;28;20079;-70
2023/01/30 10:42:18;;;;;;;5.72;2.05;;;7.00;99.90;;;;;;5099186;28;20071;-71
2023/01/30 10:44:44;;;;;;;7.45;1.60;;;6.60;99.90;;;;;;5100077;28;20052;-70
2023/01/30 10:47:19;;;;;;;5.93;2.05;;;6.40;99.90;;;;;;5100010;28;20040;-71
2023/01/30 10:49:57;;;;;;;12.52;1.90;;;6.30;99.90;;;;;;5100869;28;20047;-70
2023/01/30 10:52:52;;;;;;;5.88;2.15;;;6.40;99.90;;;;;;5100700;28;20085;-70
2023/01/30 10:55:54;;;;;;;10.55;2.75;;;6.70;99.90;;;;;;5098897;28;20452;-70
2023/01/30 10:58:30;;;;;;;8.23;2.17;;;7.00;99.90;;;;;;5088466;28;20048;-71
2023/01/30 11:00:55;;;;;;;15.98;2.78;;;7.10;99.90;;;;;;5100190;28;20112;-70
2023/01/30 11:03:28;;;;;;;15.45;3.10;;;7.30;99.90;;;;;;5100104;28;20488;-70
2023/01/30 11:06:00;;;;;;;18.83;3.17;;;7.40;99.90;;;;;;5099696;28;20121;-70
2023/01/30 11:08:31;;;;;;;19.88;3.78;;;7.60;99.90;;;;;;5100154;28;20076;-71
2023/01/30 11:10:57;;;;;;;21.05;3.55;;;7.70;99.90;;;;;;5099969;28;20044;-70
2023/01/30 11:13:33;;;;;;;15.43;2.85;;;7.70;99.90;;;;;;5115640;28;20047;-70
2023/01/30 11:16:06;;;;;;;21.60;3.42;;;7.90;99.90;;;;;;5099634;28;20055;-69
2023/01/30 11:18:42;;;;;;;24.58;4.00;;;8.00;99.90;;;;;;5099811;28;20036;-70
2023/01/30 11:21:11;;;;;;;;;;;8.20;99.90;;;;;;5099986;28;20321;-67
2023/01/30 11:23:42;;;;;;;14.48;2.95;;;8.20;99.90;;;;;;5099702;28;19916;-70
2023/01/30 11:26:33;;;;;;;16.60;2.92;;;8.30;99.90;;;;;;5099691;28;20325;-71
2023/01/30 11:28:59;;;;;;;20.42;2.65;;;8.30;99.90;;;;;;5096542;28;20123;-70
2023/01/30 11:31:27;;;;;;;16.45;3.35;;;8.30;99.90;;;;;;5099281;28;20397;-70
2023/01/30 11:34:05;;;;;;;25.00;3.45;;;8.20;99.90;;;;;;5099448;28;20040;-70
2023/01/30 11:36:33;;;;;;;20.15;2.97;;;8.20;99.90;;;;;;5098801;28;20032;-70
2023/01/30 11:39:17;;;;;;;17.17;3.13;;;8.10;99.90;;;;;;5097713;28;20591;-70
2023/01/30 11:41:54;;;;;;;17.58;3.45;;;8.10;99.90;;;;;;5099377;28;20032;-70
2023/01/30 11:44:46;;;;;;;26.88;3.97;;;8.00;99.90;;;;;;5099005;28;20111;-71
2023/01/30 11:47:24;;;;;;;21.45;3.58;;;8.10;99.90;;;;;;5097856;28;20088;-71
2023/01/30 11:49:55;;;;;;;28.80;3.95;;;8.20;99.90;;;;;;5099294;28;20048;-70
2023/01/30 11:52:41;;;;;;;20.83;3.45;;;8.20;99.90;;;;;;5099182;28;20032;-70
2023/01/30 11:55:15;;;;;;;17.08;3.08;;;8.10;99.90;;;;;;5099117;28;20071;-70
2023/01/30 11:57:52;;;;;;;25.58;3.22;;;8.10;99.90;;;;;;5099132;28;20111;-70
2023/01/30 12:00:23;;;;;;;24.50;3.45;;;8.20;99.90;;;;;;5099034;28;20028;-70
2023/01/30 12:02:51;;;;;;;21.92;3.20;;;8.30;99.90;;;;;;5098669;28;20044;-71
2023/01/30 12:05:24;;;;;;;21.17;2.97;;;8.30;99.90;;;;;;5098509;28;20105;-68
2023/01/30 12:07:51;;;;;;;18.88;2.92;;;8.20;99.90;;;;;;5098857;28;20115;-70
2023/01/30 12:10:30;;;;;;;22.70;3.40;;;8.00;99.90;;;;;;5098827;28;20047;-70
2023/01/30 12:13:00;;;;;;;17.20;2.78;;;8.10;99.90;;;;;;5098500;28;20425;-71
2023/01/30 12:15:31;;;;;;;25.02;3.53;;;8.20;99.90;;;;;;5097426;28;20044;-70
2023/01/30 12:18:09;;;;;;;20.10;3.38;;;8.20;99.90;;;;;;5098683;28;20085;-70
2023/01/30 12:20:45;;;;;;;25.02;3.72;;;8.30;99.90;;;;;;5098606;28;20040;-70
2023/01/30 12:23:17;;;;;;;17.45;3.67;;;8.30;99.90;;;;;;5098307;28;20421;-70
2023/01/30 12:25:58;;;;;;;24.50;3.47;;;8.50;99.90;;;;;;5098492;28;20036;-70
2023/01/30 12:28:38;;;;;;;28.17;4.28;;;8.60;99.90;;;;;;5098468;28;20044;-70
2023/01/30 12:31:17;;;;;;;29.10;4.75;;;8.60;99.90;;;;;;5098951;28;20040;-71
2023/01/30 12:33:43;;;;;;;24.48;4.13;;;8.60;99.90;;;;;;5098310;28;20040;-70
2023/01/30 12:36:38;;;;;;;25.23;4.22;;;8.70;99.90;;;;;;5097774;28;20337;-71
2023/01/30 12:39:26;;;;;;;31.95;5.88;;;8.80;99.90;;;;;;5098324;28;20037;-71
2023/01/30 12:41:54;;;;;;;28.65;5.22;;;8.70;99.90;;;;;;5097914;28;20429;-71
2023/01/30 12:44:32;;;;;;;32.45;4.80;;;8.70;99.90;;;;;;5097635;28;20062;-71
2023/01/30 12:47:17;;;;;;;29.50;4.90;;;8.70;99.90;;;;;;5097815;28;20047;-71
2023/01/30 12:50:08;;;;;;;35.72;5.03;;;8.70;99.90;;;;;;5100354;28;20039;-71
2023/01/30 12:52:55;;;;;;;27.77;4.95;;;8.80;99.90;;;;;;5115991;28;20031;-72
2023/01/30 12:55:32;;;;;;;30.35;4.32;;;8.70;99.90;;;;;;5117814;28;20083;-71
2023/01/30 12:58:16;;;;;;;33.50;4.85;;;8.60;99.90;;;;;;5118209;28;20297;-71
2023/01/30 13:01:06;;;;;;;26.92;4.50;;;8.80;99.90;;;;;;5118258;28;20039;-71
2023/01/30 13:03:36;;;;;;;26.75;4.60;;;8.80;99.90;;;;;;5118190;28;20089;-70
2023/01/30 13:06:32;;;;;;;29.65;4.70;;;8.80;99.90;;;;;;5117474;28;20067;-70